createdAt,value
2019-01-08T00:00:00.976Z,19.87
2019-01-08T00:02:29.851Z,14.77
2019-01-08T00:04:58.758Z,18.53
2019-01-08T00:07:27.644Z,17.00
2019-01-08T00:09:56.535Z,17.87
2019-01-08T00:12:25.414Z,17.37
2019-01-08T00:14:54.315Z,17.70
2019-01-08T00:17:23.181Z,16.17
2019-01-08T00:19:52.114Z,15.90
2019-01-08T00:22:20.988Z,18.97
2019-01-08T00:24:49.898Z,20.83
2019-01-08T00:27:18.794Z,17.27
2019-01-08T00:29:47.660Z,23.27
2019-01-08T00:32:16.590Z,16.17
2019-01-08T00:34:45.463Z,16.40
2019-01-08T00:37:14.337Z,17.00
2019-01-08T00:39:43.235Z,20.57
2019-01-08T00:42:12.131Z,15.63
2019-01-08T00:44:40.998Z,20.60
2019-01-08T00:47:09.911Z,19.17
2019-01-08T00:49:38.800Z,20.80
2019-01-08T00:52:07.807Z,21.93
2019-01-08T00:54:36.641Z,19.93
2019-01-08T00:57:05.615Z,21.43
2019-01-08T00:59:34.494Z,26.68
2019-01-08T01:02:03.401Z,21.57
2019-01-08T01:04:32.338Z,21.67
2019-01-08T01:07:01.217Z,23.12
2019-01-08T01:09:30.106Z,17.90
2019-01-08T01:11:59.006Z,22.90
2019-01-08T01:14:27.919Z,24.33
2019-01-08T01:16:56.808Z,20.67
2019-01-08T01:19:25.728Z,19.23
2019-01-08T01:21:54.601Z,17.33
2019-01-08T01:24:23.504Z,16.93
2019-01-08T01:26:52.417Z,23.80
2019-01-08T01:29:21.326Z,20.20
2019-01-08T01:31:50.219Z,22.97
2019-01-08T01:34:19.135Z,16.93
2019-01-08T01:36:48.014Z,20.70
2019-01-08T01:39:16.918Z,21.77
2019-01-08T01:41:45.822Z,19.73
2019-01-08T01:44:14.707Z,19.53
2019-01-08T01:46:43.590Z,28.60
2019-01-08T01:49:12.470Z,24.47
2019-01-08T01:51:41.362Z,27.53
2019-01-08T01:54:10.242Z,22.97
2019-01-08T01:56:39.142Z,18.17
2019-01-08T01:59:08.740Z,16.97
2019-01-08T02:01:36.981Z,27.50
2019-01-08T02:04:05.872Z,18.63
2019-01-08T02:06:34.769Z,25.37
2019-01-08T02:09:05.142Z,24.60
2019-01-08T02:11:33.980Z,20.47
2019-01-08T02:14:02.886Z,21.73
2019-01-08T02:16:31.796Z,27.27
2019-01-08T02:19:00.725Z,22.43
2019-01-08T02:21:29.622Z,19.50
2019-01-08T02:23:58.513Z,20.83
2019-01-08T02:26:27.408Z,21.37
2019-01-08T02:28:56.296Z,23.80
2019-01-08T02:31:25.198Z,22.93
2019-01-08T02:33:54.109Z,22.03
2019-01-08T02:36:22.995Z,22.30
2019-01-08T02:38:51.865Z,31.68
2019-01-08T02:41:20.937Z,22.80
2019-01-08T02:43:49.669Z,25.40
2019-01-08T02:46:18.681Z,22.53
2019-01-08T02:48:47.455Z,27.03
2019-01-08T02:51:16.344Z,31.60
2019-01-08T02:53:45.231Z,21.33
2019-01-08T02:56:14.147Z,25.50
2019-01-08T02:58:43.036Z,24.10
2019-01-08T03:01:11.950Z,29.67
2019-01-08T03:03:40.857Z,25.17
2019-01-08T03:06:09.821Z,26.77
2019-01-08T03:08:38.707Z,32.83
2019-01-08T03:11:07.607Z,24.40
2019-01-08T03:13:36.523Z,27.37
2019-01-08T03:16:05.408Z,23.33
2019-01-08T03:18:34.371Z,24.43
2019-01-08T03:21:03.191Z,24.03
2019-01-08T03:23:32.114Z,23.50
2019-01-08T03:26:01.016Z,25.83
2019-01-08T03:28:29.900Z,21.77
2019-01-08T03:30:58.810Z,30.37
2019-01-08T03:33:27.700Z,27.33
2019-01-08T03:35:56.584Z,18.67
2019-01-08T03:38:25.478Z,26.68
2019-01-08T03:40:54.400Z,20.73
2019-01-08T03:43:23.291Z,25.00
2019-01-08T03:45:52.193Z,25.33
2019-01-08T03:48:21.061Z,29.07
2019-01-08T03:50:49.971Z,24.20
2019-01-08T03:53:18.853Z,21.67
2019-01-08T03:55:47.739Z,22.03
2019-01-08T03:58:16.634Z,24.03
2019-01-08T04:00:45.558Z,32.00
2019-01-08T04:03:14.462Z,24.13
2019-01-08T04:05:43.376Z,17.30
2019-01-08T04:08:12.306Z,22.40
2019-01-08T04:10:41.210Z,15.37
2019-01-08T04:13:10.154Z,21.97
2019-01-08T04:15:39.044Z,26.00
2019-01-08T04:18:07.982Z,24.37
2019-01-08T04:20:36.891Z,20.90
2019-01-08T04:23:05.831Z,30.93
2019-01-08T04:25:34.747Z,23.47
2019-01-08T04:28:03.664Z,21.63
2019-01-08T04:30:32.556Z,23.33
2019-01-08T04:33:01.453Z,22.87
2019-01-08T04:35:30.378Z,21.30
2019-01-08T04:37:59.340Z,23.63
2019-01-08T04:40:28.193Z,20.87
2019-01-08T04:42:57.111Z,22.53
2019-01-08T04:45:26.029Z,19.20
2019-01-08T04:47:54.918Z,21.87
2019-01-08T04:50:23.801Z,19.30
2019-01-08T04:52:52.721Z,15.33
2019-01-08T04:55:21.597Z,21.27
2019-01-08T04:57:50.519Z,16.50
2019-01-08T05:00:19.416Z,16.53
2019-01-08T05:02:48.346Z,20.70
2019-01-08T05:05:17.217Z,13.80
2019-01-08T05:07:46.147Z,15.90
2019-01-08T05:10:15.030Z,14.57
2019-01-08T05:12:43.958Z,22.63
2019-01-08T05:15:12.822Z,21.40
2019-01-08T05:17:41.745Z,21.37
2019-01-08T05:20:10.627Z,30.15
2019-01-08T05:22:39.570Z,22.30
2019-01-08T05:25:08.428Z,22.83
2019-01-08T05:27:37.329Z,27.07
2019-01-08T05:30:08.056Z,26.35
2019-01-08T05:32:35.888Z,15.27
2019-01-08T05:35:04.978Z,26.82
2019-01-08T05:37:33.881Z,11.97
2019-01-08T05:40:02.805Z,13.73
2019-01-08T05:42:31.681Z,12.00
2019-01-08T05:45:00.634Z,12.10
2019-01-08T05:47:29.475Z,11.63
2019-01-08T05:49:58.426Z,7.73
2019-01-08T05:52:27.295Z,12.83
2019-01-08T05:54:56.207Z,13.60
2019-01-08T05:57:25.114Z,13.17
2019-01-08T05:59:54.046Z,8.57
2019-01-08T06:02:22.964Z,9.77
2019-01-08T06:04:51.852Z,11.20
2019-01-08T06:07:20.832Z,13.87
2019-01-08T06:09:49.652Z,11.83
2019-01-08T06:12:18.543Z,11.40
2019-01-08T06:14:47.458Z,12.77
2019-01-08T06:17:16.374Z,16.97
2019-01-08T06:19:45.238Z,13.73
2019-01-08T06:22:14.156Z,16.47
2019-01-08T06:24:43.050Z,11.30
2019-01-08T06:27:11.960Z,16.90
2019-01-08T06:29:40.901Z,22.80
2019-01-08T06:32:09.799Z,14.57
2019-01-08T06:34:38.676Z,9.03
2019-01-08T06:37:07.615Z,12.23
2019-01-08T06:39:36.490Z,9.83
2019-01-08T06:42:05.420Z,13.47
2019-01-08T06:44:34.337Z,16.57
2019-01-08T06:47:03.220Z,16.90
2019-01-08T06:49:32.118Z,19.37
2019-01-08T06:52:01.020Z,19.27
2019-01-08T06:54:29.917Z,17.97
2019-01-08T06:56:58.829Z,23.30
2019-01-08T06:59:27.718Z,14.73
2019-01-08T07:01:56.621Z,17.63
2019-01-08T07:04:25.681Z,15.40
2019-01-08T07:06:54.479Z,18.90
2019-01-08T07:09:23.387Z,19.67
2019-01-08T07:11:52.306Z,17.17
2019-01-08T07:14:21.202Z,19.40
2019-01-08T07:16:50.121Z,16.93
2019-01-08T07:19:19.027Z,16.63
2019-01-08T07:21:47.906Z,20.57
2019-01-08T07:24:16.816Z,17.67
2019-01-08T07:26:45.694Z,20.87
2019-01-08T07:29:14.655Z,24.30
2019-01-08T07:31:43.476Z,25.43
2019-01-08T07:34:12.386Z,23.63
2019-01-08T07:36:41.262Z,18.93
2019-01-08T07:39:10.165Z,26.27
2019-01-08T07:41:39.041Z,22.30
2019-01-08T07:44:08.148Z,20.17
2019-01-08T07:46:44.137Z,23.80
2019-01-08T07:49:11.354Z,18.83
2019-01-08T07:51:40.554Z,19.60
2019-01-08T07:54:12.449Z,19.40
2019-01-08T07:56:43.639Z,21.47
2019-01-08T07:59:16.895Z,19.63
2019-01-08T08:01:51.668Z,22.77
2019-01-08T08:04:19.683Z,26.83
2019-01-08T08:06:54.366Z,21.20
2019-01-08T08:09:27.975Z,17.60
2019-01-08T08:11:57.476Z,21.53
2019-01-08T08:14:31.491Z,29.27
2019-01-08T08:17:03.929Z,29.80
2019-01-08T08:19:36.344Z,24.23
2019-01-08T08:22:06.861Z,25.47
2019-01-08T08:24:42.205Z,23.87
2019-01-08T08:27:13.775Z,22.53
2019-01-08T08:29:44.920Z,26.60
2019-01-08T08:32:19.531Z,23.73
2019-01-08T08:34:47.340Z,30.33
2019-01-08T08:37:17.129Z,34.07
2019-01-08T08:39:49.777Z,23.27
2019-01-08T08:42:21.780Z,31.60
2019-01-08T08:44:53.803Z,32.37
2019-01-08T08:47:23.341Z,32.17
2019-01-08T08:49:54.598Z,28.80
2019-01-08T08:52:24.424Z,47.00
2019-01-08T08:54:56.138Z,25.30
2019-01-08T08:57:28.339Z,30.00
2019-01-08T09:00:03.676Z,29.27
2019-01-08T09:02:37.817Z,29.47
2019-01-08T09:05:16.539Z,33.33
2019-01-08T09:07:49.390Z,29.37
2019-01-08T09:10:22.041Z,37.77
2019-01-08T09:12:57.587Z,33.80
2019-01-08T09:15:30.215Z,36.47
2019-01-08T09:17:59.812Z,35.80
2019-01-08T09:20:29.293Z,40.77
2019-01-08T09:23:01.960Z,38.50
2019-01-08T09:25:34.478Z,29.67
2019-01-08T09:28:04.249Z,27.37
2019-01-08T09:30:36.140Z,32.77
2019-01-08T09:33:11.150Z,30.03
2019-01-08T09:35:43.556Z,23.90
2019-01-08T09:38:17.030Z,27.63
2019-01-08T09:40:48.913Z,32.13
2019-01-08T09:43:28.462Z,33.13
2019-01-08T09:46:11.009Z,23.80
2019-01-08T09:48:45.310Z,25.70
2019-01-08T09:51:20.983Z,20.30
2019-01-08T09:53:58.027Z,30.70
2019-01-08T09:56:30.249Z,30.17
2019-01-08T09:59:02.197Z,27.40
2019-01-08T10:01:31.840Z,26.53
2019-01-08T10:04:02.476Z,28.73
2019-01-08T10:06:32.715Z,24.70
2019-01-08T10:09:08.090Z,29.13
2019-01-08T10:11:44.648Z,26.43
2019-01-08T10:14:22.645Z,28.73
2019-01-08T10:16:51.433Z,24.67
2019-01-08T10:19:26.169Z,22.27
2019-01-08T10:21:56.472Z,19.97
2019-01-08T10:24:26.063Z,35.00
2019-01-08T10:26:55.897Z,33.87
2019-01-08T10:29:25.442Z,29.93
2019-01-08T10:31:58.647Z,28.30
2019-01-08T10:34:32.363Z,31.80
2019-01-08T10:37:05.120Z,30.17
2019-01-08T10:39:40.749Z,30.33
2019-01-08T10:42:21.307Z,26.20
2019-01-08T10:44:56.925Z,26.67
2019-01-08T10:47:47.402Z,17.53
2019-01-08T10:50:24.143Z,25.00
2019-01-08T10:52:54.450Z,28.50
2019-01-08T10:55:26.902Z,21.17
2019-01-08T10:57:56.809Z,27.53
2019-01-08T11:00:31.249Z,32.50
2019-01-08T11:03:02.808Z,30.50
2019-01-08T11:05:35.320Z,21.13
2019-01-08T11:08:26.229Z,29.53
2019-01-08T11:10:59.950Z,26.77
2019-01-08T11:13:38.539Z,29.32
2019-01-08T11:16:13.609Z,20.47
2019-01-08T11:18:45.489Z,32.53
2019-01-08T11:21:16.481Z,27.23
2019-01-08T11:23:48.522Z,25.40
2019-01-08T11:26:20.955Z,25.37
2019-01-08T11:28:52.889Z,27.53
2019-01-08T11:31:25.377Z,23.40
2019-01-08T11:34:02.330Z,27.87
2019-01-08T11:36:47.935Z,32.55
2019-01-08T11:39:19.944Z,27.90
2019-01-08T11:41:51.529Z,27.87
2019-01-08T11:44:21.879Z,22.77
2019-01-08T11:46:59.914Z,28.50
2019-01-08T11:49:32.605Z,23.57
2019-01-08T11:52:02.686Z,27.27
2019-01-08T11:54:41.657Z,24.90
2019-01-08T11:57:43.900Z,25.37
2019-01-08T12:00:18.676Z,32.13
2019-01-08T12:02:48.559Z,29.20
2019-01-08T12:05:18.546Z,22.90
2019-01-08T12:07:54.204Z,19.37
2019-01-08T12:10:25.521Z,23.33
2019-01-08T12:13:00.163Z,25.20
2019-01-08T12:15:34.394Z,27.55
2019-01-08T12:18:15.922Z,29.60
2019-01-08T12:20:45.870Z,27.63
2019-01-08T12:23:17.761Z,28.80
2019-01-08T12:25:49.774Z,24.97
2019-01-08T12:28:21.546Z,24.07
2019-01-08T12:30:57.831Z,27.57
2019-01-08T12:33:30.218Z,20.57
2019-01-08T12:36:07.152Z,25.03
2019-01-08T12:38:41.912Z,29.03
2019-01-08T12:41:11.891Z,19.27
2019-01-08T12:43:44.598Z,24.07
2019-01-08T12:46:15.567Z,22.27
2019-01-08T12:49:02.846Z,28.23
2019-01-08T12:51:44.353Z,19.67
2019-01-08T12:54:16.625Z,21.63
2019-01-08T12:56:47.945Z,18.50
2019-01-08T12:59:21.134Z,22.13
2019-01-08T13:01:56.260Z,24.53
2019-01-08T13:04:28.940Z,16.57
2019-01-08T13:07:11.522Z,17.03
2019-01-08T13:09:41.311Z,19.53
2019-01-08T13:12:17.532Z,18.73
2019-01-08T13:14:49.278Z,26.13
2019-01-08T13:17:36.736Z,24.40
2019-01-08T13:20:07.101Z,33.73
2019-01-08T13:22:39.034Z,25.23
2019-01-08T13:25:08.493Z,16.10
2019-01-08T13:27:38.123Z,14.73
2019-01-08T13:30:10.769Z,18.37
2019-01-08T13:32:42.675Z,19.37
2019-01-08T13:35:15.771Z,14.37
2019-01-08T13:37:45.036Z,14.93
2019-01-08T13:40:20.261Z,22.37
2019-01-08T13:42:55.083Z,18.10
2019-01-08T13:45:22.595Z,21.57
2019-01-08T13:47:52.064Z,21.90
2019-01-08T13:50:21.474Z,37.17
2019-01-08T13:52:51.167Z,20.10
2019-01-08T13:55:26.107Z,24.17
2019-01-08T13:57:58.741Z,16.80
2019-01-08T14:00:28.394Z,18.07
2019-01-08T14:03:00.633Z,19.57
2019-01-08T14:05:37.541Z,27.47
2019-01-08T14:08:07.842Z,27.75
2019-01-08T14:10:39.043Z,26.03
2019-01-08T14:13:12.203Z,30.53
2019-01-08T14:15:41.707Z,20.80
2019-01-08T14:18:11.185Z,24.83
2019-01-08T14:20:42.994Z,19.03
2019-01-08T14:23:16.426Z,22.50
2019-01-08T14:25:47.958Z,24.92
2019-01-08T14:28:31.384Z,21.77
2019-01-08T14:31:04.955Z,22.80
2019-01-08T14:33:34.563Z,15.77
2019-01-08T14:36:04.331Z,23.57
2019-01-08T14:38:36.801Z,21.83
2019-01-08T14:41:09.216Z,23.07
2019-01-08T14:43:39.325Z,19.93
2019-01-08T14:46:11.879Z,17.57
2019-01-08T14:48:45.053Z,21.93
2019-01-08T14:51:24.873Z,26.60
2019-01-08T14:53:56.736Z,22.23
2019-01-08T14:56:26.249Z,19.30
2019-01-08T14:58:55.756Z,22.53
2019-01-08T15:01:25.305Z,17.93
2019-01-08T15:03:54.740Z,18.13
2019-01-08T15:06:24.325Z,20.17
2019-01-08T15:08:58.348Z,24.43
2019-01-08T15:11:30.139Z,10.33
2019-01-08T15:14:05.228Z,18.23
2019-01-08T15:16:38.337Z,18.57
2019-01-08T15:19:07.601Z,17.20
2019-01-08T15:21:42.388Z,20.73
2019-01-08T15:24:20.968Z,21.40
2019-01-08T15:26:54.067Z,21.40
2019-01-08T15:29:23.611Z,25.85
2019-01-08T15:31:53.365Z,18.03
2019-01-08T15:34:26.229Z,22.77
2019-01-08T15:36:57.310Z,16.90
2019-01-08T15:39:28.286Z,19.83
2019-01-08T15:41:58.897Z,18.83
2019-01-08T15:44:27.463Z,16.00
2019-01-08T15:46:58.833Z,22.63
2019-01-08T15:49:31.768Z,19.43
2019-01-08T15:52:01.133Z,27.90
2019-01-08T15:54:35.382Z,22.70
2019-01-08T15:57:07.781Z,15.97
2019-01-08T15:59:39.824Z,19.17
2019-01-08T16:02:18.540Z,24.13
2019-01-08T16:04:47.442Z,13.60
2019-01-08T16:07:16.360Z,22.63
2019-01-08T16:09:45.275Z,18.60
2019-01-08T16:12:14.158Z,20.07
2019-01-08T16:14:43.058Z,27.10
2019-01-08T16:17:11.948Z,17.77
2019-01-08T16:19:40.895Z,21.90
2019-01-08T16:22:09.834Z,18.40
2019-01-08T16:24:38.735Z,24.80
2019-01-08T16:27:07.667Z,16.87
2019-01-08T16:29:36.552Z,20.23
2019-01-08T16:32:05.460Z,23.23
2019-01-08T16:34:34.342Z,20.95
2019-01-08T16:37:03.251Z,17.97
2019-01-08T16:39:32.220Z,17.30
2019-01-08T16:42:01.149Z,22.07
2019-01-08T16:44:30.025Z,16.50
2019-01-08T16:46:58.950Z,16.27
2019-01-08T16:49:27.847Z,16.50
2019-01-08T16:51:56.787Z,13.10
2019-01-08T16:54:25.719Z,12.57
2019-01-08T16:56:54.598Z,21.30
2019-01-08T16:59:23.503Z,17.13
2019-01-08T17:01:52.392Z,17.80
2019-01-08T17:04:21.331Z,17.20
2019-01-08T17:06:50.217Z,15.77
2019-01-08T17:09:19.119Z,16.57
2019-01-08T17:11:48.102Z,14.70
2019-01-08T17:14:16.963Z,18.13
2019-01-08T17:16:45.866Z,12.93
2019-01-08T17:19:14.730Z,23.03
2019-01-08T17:21:43.646Z,19.77
2019-01-08T17:24:12.516Z,19.67
2019-01-08T17:26:41.383Z,24.93
2019-01-08T17:29:10.267Z,26.23
2019-01-08T17:31:39.155Z,20.13
2019-01-08T17:34:08.098Z,21.67
2019-01-08T17:36:36.971Z,21.37
2019-01-08T17:39:07.398Z,22.53
2019-01-08T17:41:36.298Z,17.03
2019-01-08T17:44:05.271Z,22.07
2019-01-08T17:46:34.133Z,20.37
2019-01-08T17:49:03.050Z,17.90
2019-01-08T17:51:32.022Z,16.07
2019-01-08T17:54:01.086Z,19.27
2019-01-08T17:56:30.012Z,19.53
2019-01-08T17:59:05.138Z,23.20
2019-01-08T18:01:36.283Z,15.83
2019-01-08T18:04:05.186Z,19.03
2019-01-08T18:06:34.126Z,16.93
2019-01-08T18:09:03.094Z,16.97
2019-01-08T18:11:32.030Z,17.17
2019-01-08T18:14:00.987Z,15.93
2019-01-08T18:16:29.837Z,19.75
2019-01-08T18:18:58.766Z,20.90
2019-01-08T18:21:27.651Z,22.30
2019-01-08T18:23:56.557Z,19.87
2019-01-08T18:26:25.478Z,19.00
2019-01-08T18:28:54.400Z,18.73
2019-01-08T18:31:23.295Z,25.63
2019-01-08T18:33:52.196Z,16.60
2019-01-08T18:36:21.117Z,17.47
2019-01-08T18:38:50.022Z,21.33
2019-01-08T18:41:18.991Z,22.93
2019-01-08T18:43:47.876Z,21.07
2019-01-08T18:46:16.771Z,20.40
2019-01-08T18:48:45.650Z,25.60
2019-01-08T18:51:16.969Z,14.43
2019-01-08T18:53:45.885Z,23.00
2019-01-08T18:56:14.753Z,23.10
2019-01-08T18:58:43.672Z,21.47
2019-01-08T19:01:12.543Z,24.03
2019-01-08T19:03:41.415Z,19.80
2019-01-08T19:06:10.386Z,19.97
2019-01-08T19:09:15.986Z,14.37
2019-01-08T19:11:44.901Z,17.13
2019-01-08T19:14:14.962Z,13.57
2019-01-08T19:16:43.892Z,14.60
2019-01-08T19:19:12.832Z,14.33
2019-01-08T19:21:41.727Z,17.93
2019-01-08T19:24:11.098Z,17.50
2019-01-08T19:26:40.094Z,18.23
2019-01-08T19:29:09.039Z,21.10
2019-01-08T19:31:37.944Z,16.70
2019-01-08T19:34:09.479Z,20.50
2019-01-08T19:36:35.735Z,19.53
2019-01-08T19:39:06.644Z,23.80
2019-01-08T19:41:35.526Z,17.87
2019-01-08T19:44:04.471Z,14.20
2019-01-08T19:46:33.398Z,16.07
2019-01-08T19:49:03.472Z,13.23
2019-01-08T19:51:32.758Z,9.47
2019-01-08T19:54:01.843Z,12.60
2019-01-08T19:56:30.811Z,6.90
2019-01-08T19:58:59.712Z,6.57
2019-01-08T20:01:28.623Z,8.47
2019-01-08T20:03:57.508Z,4.57
2019-01-08T20:06:26.378Z,8.70
2019-01-08T20:08:55.370Z,7.60
2019-01-08T20:11:24.220Z,11.70
2019-01-08T20:13:53.088Z,9.60
2019-01-08T20:16:21.963Z,9.53
2019-01-08T20:18:50.839Z,12.03
2019-01-08T20:21:19.742Z,13.80
2019-01-08T20:23:48.685Z,9.83
2019-01-08T20:26:17.657Z,14.33
2019-01-08T20:28:46.478Z,15.13
2019-01-08T20:31:15.372Z,15.40
2019-01-08T20:33:44.273Z,15.83
2019-01-08T20:36:13.175Z,14.40
2019-01-08T20:38:42.075Z,11.40
2019-01-08T20:41:11.032Z,12.17
2019-01-08T20:43:39.940Z,10.47
2019-01-08T20:46:08.928Z,14.30
2019-01-08T20:48:37.806Z,16.87
2019-01-08T20:51:07.055Z,17.70
2019-01-08T20:53:35.908Z,17.30
2019-01-08T20:56:04.849Z,16.53
2019-01-08T20:58:33.736Z,12.27
2019-01-08T21:01:02.674Z,15.83
2019-01-08T21:03:31.555Z,15.70
2019-01-08T21:06:00.465Z,11.77
2019-01-08T21:08:29.418Z,13.63
2019-01-08T21:10:58.316Z,15.95
2019-01-08T21:13:27.220Z,11.07
2019-01-08T21:15:56.129Z,14.97
2019-01-08T21:18:25.030Z,9.80
2019-01-08T21:20:53.937Z,13.87
2019-01-08T21:23:22.874Z,11.43
2019-01-08T21:25:51.766Z,11.10
2019-01-08T21:28:20.649Z,12.23
2019-01-08T21:30:49.595Z,9.10
2019-01-08T21:33:18.529Z,10.57
2019-01-08T21:35:47.404Z,10.60
2019-01-08T21:38:16.307Z,10.40
2019-01-08T21:40:45.196Z,9.47
2019-01-08T21:43:14.093Z,10.57
2019-01-08T21:45:43.021Z,8.10
2019-01-08T21:48:11.949Z,11.03
2019-01-08T21:50:40.819Z,11.00
2019-01-08T21:53:09.733Z,10.47
2019-01-08T21:55:38.722Z,11.20
2019-01-08T21:58:07.634Z,9.83
2019-01-08T22:00:36.502Z,16.90
2019-01-08T22:03:05.466Z,10.70
2019-01-08T22:05:34.383Z,14.00
2019-01-08T22:08:03.377Z,10.70
2019-01-08T22:10:32.313Z,14.93
2019-01-08T22:13:01.189Z,15.77
2019-01-08T22:15:30.124Z,12.13
2019-01-08T22:17:58.999Z,13.37
2019-01-08T22:20:27.911Z,10.00
2019-01-08T22:22:56.842Z,10.33
2019-01-08T22:25:25.724Z,15.97
2019-01-08T22:27:54.619Z,19.97
2019-01-08T22:30:23.522Z,27.83
2019-01-08T22:32:52.411Z,16.80
2019-01-08T22:35:21.329Z,17.60
2019-01-08T22:37:50.247Z,19.20
2019-01-08T22:40:19.134Z,17.80
2019-01-08T22:42:48.061Z,17.63
2019-01-08T22:45:16.964Z,23.52
2019-01-08T22:47:45.844Z,20.17
2019-01-08T22:50:14.776Z,23.43
2019-01-08T22:52:43.703Z,18.30
2019-01-08T22:55:12.621Z,21.03
2019-01-08T22:57:41.492Z,26.20
2019-01-08T23:00:33.953Z,28.27
2019-01-08T23:03:02.827Z,19.83
2019-01-08T23:05:31.727Z,18.43
2019-01-08T23:08:00.620Z,25.47
2019-01-08T23:10:30.819Z,23.33
2019-01-08T23:13:00.747Z,23.03
2019-01-08T23:15:29.672Z,23.57
2019-01-08T23:17:58.546Z,21.10
2019-01-08T23:20:27.436Z,21.97
2019-01-08T23:22:56.345Z,23.17
2019-01-08T23:25:25.221Z,15.17
2019-01-08T23:27:54.118Z,19.53
2019-01-08T23:30:22.996Z,23.37
2019-01-08T23:32:51.866Z,20.70
2019-01-08T23:35:20.765Z,26.17
2019-01-08T23:37:49.636Z,14.30
2019-01-08T23:40:18.539Z,18.23
2019-01-08T23:42:47.440Z,13.50
2019-01-08T23:45:16.310Z,41.80
2019-01-08T23:47:45.187Z,18.73
2019-01-08T23:50:14.068Z,17.23
2019-01-08T23:53:05.019Z,19.13
2019-01-08T23:55:33.927Z,21.20
2019-01-08T23:58:03.278Z,16.53
